Time;durP1;ratioP1;P1;durP2;ratioP2;P2;SDS_P1;SDS_P2;PMS_P1;PMS_P2;Temp;Humidity;BMP_temperature;BMP_pressure;BME280_temperature;BME280_humidity;BME280_pressure;Samples;Min_cycle;Max_cycle;Signal;HPM_P1;HPM_P2
2023/01/28 00:01:22;;;;;;;1999.90;999.90;;;;;;;-0.64;100.00;95107.44;5065513;28;20209;-73
2023/01/28 00:03:51;;;;;;;1999.90;999.90;;;;;;;-0.75;100.00;95105.56;5065468;28;20208;-69
2023/01/28 00:06:20;;;;;;;1999.90;999.90;;;;;;;-0.73;100.00;95084.56;5065723;28;20443;-70
2023/01/28 00:08:46;;;;;;;1999.90;999.90;;;;;;;-0.79;100.00;95073.31;5065281;28;20166;-70
2023/01/28 00:11:12;;;;;;;1999.90;999.90;;;;;;;-0.71;100.00;95066.22;5065155;28;20170;-71
2023/01/28 00:13:37;;;;;;;1999.90;999.90;;;;;;;-0.68;100.00;95060.19;5065719;28;20176;-66
2023/01/28 00:16:07;;;;;;;1999.90;999.90;;;;;;;-0.70;100.00;95049.03;5064742;28;20178;-70
2023/01/28 00:18:33;;;;;;;1999.90;999.90;;;;;;;-0.61;100.00;95047.00;5065590;28;20173;-69
2023/01/28 00:21:03;;;;;;;1999.90;999.90;;;;;;;-0.72;100.00;95045.91;5065358;28;20491;-66
2023/01/28 00:23:31;;;;;;;1999.90;999.90;;;;;;;-0.68;100.00;95031.50;5065506;28;20174;-66
2023/01/28 00:25:58;;;;;;;1999.90;999.90;;;;;;;-0.69;100.00;95023.81;5064949;28;20280;-66
2023/01/28 00:28:24;;;;;;;1999.90;999.90;;;;;;;-0.75;100.00;95025.16;5064546;28;20171;-68
2023/01/28 00:30:49;;;;;;;1999.90;999.90;;;;;;;-0.84;100.00;95027.22;5064075;28;20173;-68
2023/01/28 00:33:15;;;;;;;1999.90;999.90;;;;;;;-0.86;100.00;95018.72;5064830;28;20172;-67
2023/01/28 00:35:40;;;;;;;1999.90;999.90;;;;;;;-0.82;100.00;95009.66;5065219;28;20167;-67
2023/01/28 00:38:06;;;;;;;1999.90;999.90;;;;;;;-0.81;100.00;95010.44;5064650;28;20188;-68
2023/01/28 00:40:31;;;;;;;1999.90;999.90;;;;;;;-0.85;100.00;95014.91;5065201;28;20352;-68
2023/01/28 00:42:56;;;;;;;1999.90;999.90;;;;;;;-0.82;100.00;94998.16;5064669;28;20348;-67
2023/01/28 00:45:22;;;;;;;1999.90;999.90;;;;;;;-0.80;100.00;94987.91;5065186;28;20167;-67
2023/01/28 00:47:47;;;;;;;1999.90;999.90;;;;;;;-0.71;100.00;94985.84;5065032;28;20166;-66
2023/01/28 00:50:13;;;;;;;1999.90;999.90;;;;;;;-0.75;100.00;94984.97;5064310;28;20234;-66
2023/01/28 00:52:39;;;;;;;1999.90;999.90;;;;;;;-0.89;100.00;94982.69;5064507;28;20171;-66
2023/01/28 00:55:05;;;;;;;1999.90;999.90;;;;;;;-0.91;100.00;94984.91;5064400;28;20191;-69
2023/01/28 00:57:30;;;;;;;1999.90;999.90;;;;;;;-0.93;100.00;94981.00;5064296;28;20162;-68
2023/01/28 00:59:56;;;;;;;1999.90;999.90;;;;;;;-0.83;100.00;94970.56;5064221;28;20215;-68
2023/01/28 01:02:21;;;;;;;1999.90;999.90;;;;;;;-0.75;100.00;94960.84;5064239;28;20195;-68
2023/01/28 01:04:59;;;;;;;1999.90;999.90;;;;;;;-0.84;100.00;94969.03;5064271;28;20180;-68
2023/01/28 01:10:21;;;;;;;1999.90;999.90;;;;;;;-0.94;100.00;94966.06;5056048;28;20221;-68
2023/01/28 01:12:47;;;;;;;1999.90;999.90;;;;;;;-0.84;100.00;94962.91;5064675;28;20167;-68
2023/01/28 01:15:13;;;;;;;1999.90;999.90;;;;;;;-0.81;100.00;94967.56;5064533;28;20243;-68
2023/01/28 01:17:40;;;;;;;1999.90;999.90;;;;;;;-0.84;100.00;94973.63;5063996;28;20228;-69
2023/01/28 01:20:10;;;;;;;1999.90;999.90;;;;;;;-0.87;100.00;94974.31;5064252;28;20210;-69
2023/01/28 01:22:36;;;;;;;1999.90;999.90;;;;;;;-0.81;100.00;94973.72;5063938;28;20168;-68
2023/01/28 01:25:03;;;;;;;1999.90;999.90;;;;;;;-0.84;100.00;94978.97;5063526;28;20189;-68
2023/01/28 01:27:30;;;;;;;1999.90;999.90;;;;;;;-0.87;100.00;94975.06;5064595;28;20255;-68
2023/01/28 01:29:55;;;;;;;1999.90;999.90;;;;;;;-0.90;100.00;94972.28;5063835;28;20233;-68
2023/01/28 01:32:21;;;;;;;1999.90;999.90;;;;;;;-0.91;100.00;94968.81;5064299;28;20167;-69
2023/01/28 01:34:47;;;;;;;1999.90;999.90;;;;;;;-0.90;100.00;94962.38;5063873;28;20188;-68
2023/01/28 01:37:13;;;;;;;1999.90;999.90;;;;;;;-0.80;100.00;94969.13;5063933;28;20229;-68
2023/01/28 01:39:38;;;;;;;1999.90;999.90;;;;;;;-0.82;100.00;94966.00;5064357;28;20220;-68
2023/01/28 01:42:04;;;;;;;1999.90;999.90;;;;;;;-0.89;100.00;94982.69;5064334;28;20479;-68
2023/01/28 01:44:51;;;;;;;1999.90;999.90;;;;;;;-0.93;100.00;94981.00;5063745;28;20241;-68
2023/01/28 01:47:17;;;;;;;1999.90;999.90;;;;;;;-0.91;100.00;94978.78;5064256;28;20229;-68
2023/01/28 01:49:43;;;;;;;1999.90;999.90;;;;;;;-0.94;100.00;94979.47;5065783;28;20522;-69
2023/01/28 01:52:17;;;;;;;1999.90;999.90;;;;;;;-0.92;100.00;94975.31;5067398;28;20169;-70
2023/01/28 01:54:45;;;;;;;1999.90;999.90;;;;;;;-0.83;100.00;94975.19;5067534;28;20189;-70
2023/01/28 01:57:15;;;;;;;1999.90;999.90;;;;;;;-0.93;100.00;94981.00;5066852;28;20169;-70
2023/01/28 01:59:42;;;;;;;1999.90;999.90;;;;;;;-1.04;100.00;94985.28;5066856;28;20248;-70
2023/01/28 02:02:10;;;;;;;1999.90;999.90;;;;;;;-1.04;100.00;94974.56;5067318;28;20502;-70
2023/01/28 02:04:42;;;;;;;1999.90;999.90;;;;;;;-0.97;100.00;94980.13;5067159;28;20171;-70
2023/01/28 02:07:09;;;;;;;1999.90;999.90;;;;;;;-0.92;100.00;94980.66;5067174;28;20208;-71
2023/01/28 02:09:37;;;;;;;1999.90;999.90;;;;;;;-1.06;100.00;94982.19;5066813;28;20165;-71
2023/01/28 02:12:17;;;;;;;1999.90;999.90;;;;;;;-1.05;100.00;94987.19;5066721;28;20192;-68
2023/01/28 02:14:58;;;;;;;1999.90;999.90;;;;;;;-0.95;100.00;94983.28;5066579;28;20189;-71
2023/01/28 02:17:25;;;;;;;1999.90;999.90;;;;;;;-1.01;100.00;94982.72;5067229;28;20166;-70
2023/01/28 02:20:00;;;;;;;1999.90;999.90;;;;;;;-0.98;100.00;94994.66;5066487;28;20271;-72
2023/01/28 02:23:03;;;;;;;1999.90;999.90;;;;;;;-0.92;100.00;94998.63;5067229;28;20240;-69
2023/01/28 02:25:39;;;;;;;1999.90;999.90;;;;;;;-0.88;100.00;94994.16;5066604;28;20180;-69
2023/01/28 02:28:30;;;;;;;1999.90;999.90;;;;;;;-1.03;100.00;95008.28;5067289;28;20173;-69
2023/01/28 02:31:07;;;;;;;1999.90;999.90;;;;;;;-1.05;100.00;95010.53;5067358;28;20176;-69
2023/01/28 02:33:50;;;;;;;1999.90;999.90;;;;;;;-1.00;100.00;95013.75;5067109;28;20173;-70
2023/01/28 02:36:42;;;;;;;1999.90;999.90;;;;;;;-0.94;100.00;95011.59;5066493;28;20201;-68
2023/01/28 02:39:23;;;;;;;1999.90;999.90;;;;;;;-1.00;100.00;95018.31;5066998;28;20244;-68
2023/01/28 02:41:54;;;;;;;1999.90;999.90;;;;;;;-1.06;100.00;95033.06;5066986;28;20204;-67
2023/01/28 02:44:19;;;;;;;1999.90;999.90;;;;;;;-1.05;100.00;95040.75;5066987;28;20184;-67
2023/01/28 02:49:35;;;;;;;1999.90;999.90;;;;;;;-0.87;100.00;95049.31;5084242;28;20209;-67
2023/01/28 02:52:06;;;;;;;1999.90;999.90;;;;;;;-0.95;100.00;95052.91;5066875;28;20177;-67
2023/01/28 02:54:51;;;;;;;1999.90;999.90;;;;;;;-0.88;100.00;95058.47;5067965;28;20256;-67
2023/01/28 02:57:43;;;;;;;1999.90;999.90;;;;;;;-0.90;100.00;95071.44;5070407;28;20171;-67
2023/01/28 03:00:17;;;;;;;1999.90;999.90;;;;;;;-1.03;100.00;95077.91;5070287;28;20188;-68
2023/01/28 03:03:04;;;;;;;1999.90;999.90;;;;;;;-0.94;100.00;95079.34;5070312;28;20161;-67
2023/01/28 03:06:02;;;;;;;1999.90;999.90;;;;;;;-0.95;100.00;95085.81;5069809;28;20173;-69
2023/01/28 03:39:09;;;;;;;1999.90;999.90;;;;;;;-1.01;100.00;95153.38;5086925;28;20160;-68
2023/01/28 03:41:35;;;;;;;1999.90;999.90;;;;;;;-0.89;100.00;95153.34;5069034;28;20202;-70
2023/01/28 03:46:44;;;;;;;1999.90;999.90;;;;;;;-0.91;100.00;95155.59;5086449;28;20231;-68
2023/01/28 03:49:09;;;;;;;1999.90;999.90;;;;;;;-0.88;100.00;95152.22;5068881;28;20450;-69
2023/01/28 03:51:35;;;;;;;1999.90;999.90;;;;;;;-0.84;100.00;95153.16;5068628;28;20240;-68
2023/01/28 03:54:01;;;;;;;1999.90;999.90;;;;;;;-0.94;100.00;95161.63;5069399;28;20177;-68
2023/01/28 03:56:27;;;;;;;1999.90;999.90;;;;;;;-1.02;100.00;95163.28;5069398;28;20174;-68
2023/01/28 03:58:52;;;;;;;1999.90;999.90;;;;;;;-0.93;100.00;95166.66;5069227;28;20170;-68
2023/01/28 04:01:19;;;;;;;1999.90;999.90;;;;;;;-0.88;100.00;95171.00;5069163;28;20204;-69
2023/01/28 04:03:44;;;;;;;1999.90;999.90;;;;;;;-0.90;100.00;95173.25;5068726;28;20175;-69
2023/01/28 04:06:10;;;;;;;1999.90;999.90;;;;;;;-0.95;100.00;95176.16;5067974;28;20241;-68
2023/01/28 04:08:35;;;;;;;1999.90;999.90;;;;;;;-0.85;100.00;95176.47;5068527;28;20176;-68
2023/01/28 04:11:14;;;;;;;1999.90;999.90;;;;;;;-0.81;100.00;95187.28;5068471;28;20169;-67
2023/01/28 04:13:40;;;;;;;1999.90;999.90;;;;;;;-0.91;100.00;95190.44;5068979;28;20414;-68
2023/01/28 04:16:07;;;;;;;1999.90;999.90;;;;;;;-0.95;100.00;95192.22;5068876;28;20169;-67
2023/01/28 04:18:33;;;;;;;1999.90;999.90;;;;;;;-0.94;100.00;95204.50;5068381;28;20223;-68
2023/01/28 04:20:58;;;;;;;1999.90;999.90;;;;;;;-0.96;100.00;95206.72;5068226;28;20275;-68
2023/01/28 04:23:23;;;;;;;1999.90;999.90;;;;;;;-0.92;100.00;95210.28;5068324;28;20174;-67
2023/01/28 04:25:49;;;;;;;1999.90;999.90;;;;;;;-1.04;100.00;95216.44;5068857;28;20214;-67
2023/01/28 04:28:15;;;;;;;1999.90;999.90;;;;;;;-1.05;100.00;95216.78;5068563;28;20185;-67
2023/01/28 04:30:40;;;;;;;1999.90;999.90;;;;;;;-0.98;100.00;95219.69;5068153;28;20195;-66
2023/01/28 04:33:05;;;;;;;1999.90;999.90;;;;;;;-1.04;100.00;95221.00;5068591;28;20382;-67
2023/01/28 04:35:31;;;;;;;1999.90;999.90;;;;;;;-0.96;100.00;95218.22;5068119;28;20169;-68
2023/01/28 04:37:56;;;;;;;1999.90;999.90;;;;;;;-0.88;100.00;95216.53;5068029;28;20193;-66
2023/01/28 04:40:21;;;;;;;1999.90;999.90;;;;;;;-0.82;100.00;95223.25;5067886;28;20253;-65
2023/01/28 04:42:54;;;;;;;1999.90;999.90;;;;;;;-0.87;100.00;95215.44;5067935;28;20169;-65
2023/01/28 04:45:20;;;;;;;1999.90;999.90;;;;;;;-0.89;100.00;95229.16;5068533;28;20216;-65
2023/01/28 04:47:46;;;;;;;1999.90;999.90;;;;;;;-0.97;100.00;95234.63;5068406;28;20165;-65
2023/01/28 04:50:11;;;;;;;1999.90;999.90;;;;;;;-0.94;100.00;95231.28;5067694;28;20225;-65
2023/01/28 04:52:36;;;;;;;1999.90;999.90;;;;;;;-0.90;100.00;95232.19;5068108;28;20169;-65
2023/01/28 04:55:02;;;;;;;1999.90;999.90;;;;;;;-0.87;100.00;95232.28;5068172;28;20169;-65
2023/01/28 04:57:28;;;;;;;1999.90;999.90;;;;;;;-0.91;100.00;95233.31;5067631;28;20170;-65
2023/01/28 04:59:53;;;;;;;1999.90;999.90;;;;;;;-0.89;100.00;95239.09;5067850;28;20169;-67
2023/01/28 05:02:18;;;;;;;1999.90;999.90;;;;;;;-0.89;100.00;95233.75;5067589;28;20181;-67
2023/01/28 05:04:44;;;;;;;1999.90;999.90;;;;;;;-0.88;100.00;95240.66;5067678;28;20190;-67
2023/01/28 05:07:10;;;;;;;1999.90;999.90;;;;;;;-0.98;100.00;95251.81;5067500;28;20184;-68
2023/01/28 05:09:35;;;;;;;1999.90;999.90;;;;;;;-0.94;100.00;95242.00;5067493;28;20173;-67
2023/01/28 05:12:01;;;;;;;1999.90;999.90;;;;;;;-0.93;100.00;95251.59;5067475;28;20173;-67
2023/01/28 05:14:26;;;;;;;1999.90;999.90;;;;;;;-0.98;100.00;95243.78;5067447;28;20181;-67
2023/01/28 05:16:52;;;;;;;1999.90;999.90;;;;;;;-0.93;100.00;95251.59;5067526;28;20228;-68
2023/01/28 05:19:17;;;;;;;1999.90;999.90;;;;;;;-0.95;100.00;95245.81;5067926;28;20197;-68
2023/01/28 05:21:42;;;;;;;1999.90;999.90;;;;;;;-0.89;100.00;95244.47;5067766;28;20198;-67
2023/01/28 05:24:08;;;;;;;1999.90;999.90;;;;;;;-0.83;100.00;95249.25;5067789;28;20169;-68
2023/01/28 05:26:33;;;;;;;1999.90;999.90;;;;;;;-0.85;100.00;95250.72;5067670;28;20174;-68
2023/01/28 05:28:59;;;;;;;1999.90;999.90;;;;;;;-1.00;100.00;95243.34;5067117;28;20175;-68
2023/01/28 05:31:24;;;;;;;1999.90;999.90;;;;;;;-1.09;100.00;95250.69;5067114;28;20177;-67
2023/01/28 05:33:51;;;;;;;1999.90;999.90;;;;;;;-1.03;100.00;95238.63;5067128;28;20174;-65
2023/01/28 05:36:17;;;;;;;1999.90;999.90;;;;;;;-1.10;100.00;95249.13;5067137;28;20179;-67
2023/01/28 05:38:42;;;;;;;1999.90;999.90;;;;;;;-1.13;100.00;95228.38;5067530;28;20246;-67
2023/01/28 05:41:07;;;;;;;1999.90;999.90;;;;;;;-0.98;100.00;95214.31;5067056;28;20259;-67
2023/01/28 05:43:33;;;;;;;1999.90;999.90;;;;;;;-1.09;100.00;95205.16;5067355;28;20175;-66
2023/01/28 05:45:58;;;;;;;1999.90;999.90;;;;;;;-1.05;100.00;95198.78;5067844;28;20168;-67
2023/01/28 05:48:24;;;;;;;1999.90;999.90;;;;;;;-1.08;100.00;95198.69;5067171;28;20169;-68
2023/01/28 05:50:49;;;;;;;1999.90;999.90;;;;;;;-1.02;100.00;95186.66;5067283;28;20239;-68
2023/01/28 05:53:15;;;;;;;1999.90;999.90;;;;;;;-1.09;100.00;95192.53;5067757;28;20166;-68
2023/01/28 05:55:40;;;;;;;1999.90;999.90;;;;;;;-1.18;100.00;95185.72;5066978;28;20176;-67
2023/01/28 05:58:06;;;;;;;1999.90;999.90;;;;;;;-1.16;100.00;95186.19;5066831;28;20179;-67
2023/01/28 06:00:31;;;;;;;1999.90;999.90;;;;;;;-1.06;100.00;95169.69;5066899;28;20203;-67
2023/01/28 06:02:56;;;;;;;1999.90;999.90;;;;;;;-1.02;100.00;95162.53;5067172;28;20169;-67
2023/01/28 06:05:22;;;;;;;1999.90;999.90;;;;;;;-0.94;100.00;95161.63;5067359;28;20177;-67
2023/01/28 06:07:48;;;;;;;1999.90;999.90;;;;;;;-0.94;100.00;95154.34;5067547;28;20212;-67
2023/01/28 06:10:16;;;;;;;1999.90;999.90;;;;;;;-0.93;100.00;95150.59;5067340;28;20169;-69
2023/01/28 06:12:42;;;;;;;1999.90;999.90;;;;;;;-0.91;100.00;95169.00;5066387;28;20166;-68
2023/01/28 06:15:08;;;;;;;1999.90;999.90;;;;;;;-0.95;100.00;95165.44;5066696;28;20275;-69
2023/01/28 06:17:33;;;;;;;1999.90;999.90;;;;;;;-1.04;100.00;95167.44;5066731;28;20212;-68
2023/01/28 06:19:58;;;;;;;1999.90;999.90;;;;;;;-0.97;100.00;95167.66;5066958;28;20197;-69
2023/01/28 06:22:24;;;;;;;1999.90;999.90;;;;;;;-0.92;100.00;95167.41;5066865;28;20173;-66
2023/01/28 06:24:49;;;;;;;1999.90;999.90;;;;;;;-0.86;100.00;95166.09;5066675;28;20282;-66
2023/01/28 06:27:15;;;;;;;1999.90;999.90;;;;;;;-0.98;100.00;95182.19;5066504;28;20165;-66
2023/01/28 06:29:40;;;;;;;1999.90;999.90;;;;;;;-0.98;100.00;95182.19;5068436;28;20224;-66
2023/01/28 06:32:05;;;;;;;1999.90;999.90;;;;;;;-0.95;100.00;95192.22;5070380;28;20169;-66
2023/01/28 06:34:31;;;;;;;1999.90;999.90;;;;;;;-0.93;100.00;95195.34;5070523;28;20167;-67
2023/01/28 06:36:56;;;;;;;1999.90;999.90;;;;;;;-0.91;100.00;95198.47;5070409;28;20173;-68
2023/01/28 06:39:22;;;;;;;1999.90;999.90;;;;;;;-0.90;100.00;95194.66;5070385;28;20169;-68
2023/01/28 06:41:48;;;;;;;1999.90;999.90;;;;;;;-1.01;100.00;95213.09;5070045;28;20208;-67
2023/01/28 06:44:13;;;;;;;1999.90;999.90;;;;;;;-0.98;100.00;95214.31;5070626;28;20176;-67
2023/01/28 06:46:39;;;;;;;1999.90;999.90;;;;;;;-1.00;100.00;95216.53;5070116;28;20245;-66
2023/01/28 06:49:04;;;;;;;1999.90;999.90;;;;;;;-0.96;100.00;95217.44;5070229;28;20173;-66
2023/01/28 06:51:29;;;;;;;1999.90;999.90;;;;;;;-0.99;100.00;95218.09;5070185;28;20221;-66
2023/01/28 06:53:55;;;;;;;1999.90;999.90;;;;;;;-0.93;100.00;95216.78;5070256;28;20179;-66
2023/01/28 06:56:21;;;;;;;1999.90;999.90;;;;;;;-1.06;100.00;95225.94;5070357;28;20240;-69
2023/01/28 06:58:47;;;;;;;1999.90;999.90;;;;;;;-1.05;100.00;95227.50;5069897;28;20177;-68
2023/01/28 07:01:12;;;;;;;1999.90;999.90;;;;;;;-1.07;100.00;95232.38;5069861;28;20216;-67
2023/01/28 07:03:37;;;;;;;1999.90;999.90;;;;;;;-1.03;100.00;95230.59;5069896;28;20178;-68
2023/01/28 07:06:03;;;;;;;1999.90;999.90;;;;;;;-0.95;100.00;95224.38;5070159;28;20180;-62
2023/01/28 07:08:28;;;;;;;1999.90;999.90;;;;;;;-0.95;100.00;95245.81;5069612;28;20200;-66
2023/01/28 07:10:54;;;;;;;1999.90;999.90;;;;;;;-0.94;100.00;95236.66;5070051;28;20173;-65
2023/01/28 07:13:19;;;;;;;1999.90;999.90;;;;;;;-0.87;100.00;95236.88;5069629;28;20249;-66
2023/01/28 07:15:44;;;;;;;1999.90;999.90;;;;;;;-0.81;100.00;95240.88;5069821;28;20177;-66
2023/01/28 07:18:10;;;;;;;1999.90;999.90;;;;;;;-0.85;100.00;95245.34;5069479;28;20196;-66
2023/01/28 07:20:35;;;;;;;1999.90;999.90;;;;;;;-0.79;100.00;95244.03;5069434;28;20266;-68
2023/01/28 07:23:01;;;;;;;1999.90;999.90;;;;;;;-0.76;100.00;95267.47;5069944;28;20208;-69
2023/01/28 07:25:26;;;;;;;1999.90;999.90;;;;;;;-0.82;100.00;95276.84;5069546;28;20173;-68
2023/01/28 07:27:52;;;;;;;1999.90;999.90;;;;;;;-0.70;100.00;95274.16;5069265;28;20178;-68
2023/01/28 07:30:19;;;;;;;1999.90;999.90;;;;;;;-0.67;100.00;95287.69;5069310;28;20177;-67
2023/01/28 07:32:45;;;;;;;1999.90;999.90;;;;;;;-0.90;100.00;95291.13;5069667;28;20181;-67
2023/01/28 07:35:11;;;;;;;1999.90;999.90;;;;;;;-0.86;100.00;95297.38;5069185;28;20228;-71
2023/01/28 07:37:37;;;;;;;1999.90;999.90;;;;;;;-0.86;100.00;95308.91;5069160;28;20184;-71
2023/01/28 07:40:03;;;;;;;1999.90;999.90;;;;;;;-0.83;100.00;95308.19;5068865;28;20177;-71
2023/01/28 07:42:28;;;;;;;1999.90;999.90;;;;;;;-0.83;100.00;95323.50;5068636;28;20173;-71
2023/01/28 07:44:53;;;;;;;1999.90;999.90;;;;;;;-0.81;100.00;95321.28;5069063;28;20182;-69
2023/01/28 07:47:19;;;;;;;1999.90;999.90;;;;;;;-0.78;100.00;95323.28;5069340;28;20182;-70
2023/01/28 07:49:44;;;;;;;1999.90;999.90;;;;;;;-0.72;100.00;95325.41;5069224;28;20223;-72
2023/01/28 07:52:10;;;;;;;1999.90;999.90;;;;;;;-0.72;100.00;95325.41;5069049;28;20195;-68
2023/01/28 07:54:35;;;;;;;1999.90;999.90;;;;;;;-0.69;100.00;95324.00;5068824;28;20208;-70
2023/01/28 07:57:00;;;;;;;1999.90;999.90;;;;;;;-0.72;100.00;95340.72;5068875;28;20194;-70
2023/01/28 07:59:26;;;;;;;1999.90;999.90;;;;;;;-0.72;100.00;95341.50;5069257;28;20169;-69
2023/01/28 08:01:53;;;;;;;1999.90;999.90;;;;;;;-0.77;100.00;95348.97;5068604;28;20234;-69
2023/01/28 08:04:18;;;;;;;1999.90;999.90;;;;;;;-0.67;100.00;95343.19;5069129;28;20219;-69
2023/01/28 08:06:44;;;;;;;1999.90;999.90;;;;;;;-0.75;100.00;95338.72;5068342;28;20169;-70
2023/01/28 08:09:09;;;;;;;1999.90;999.90;;;;;;;-0.67;100.00;95341.28;5068577;28;20170;-69
2023/01/28 08:11:37;;;;;;;1999.90;999.90;;;;;;;-0.77;100.00;95343.59;5069315;28;20170;-69
2023/01/28 08:14:03;;;;;;;1999.90;999.90;;;;;;;-0.76;100.00;95339.84;5068469;28;20261;-70
2023/01/28 08:16:29;;;;;;;1999.90;999.90;;;;;;;-0.69;100.00;95340.84;5068547;28;20181;-67
2023/01/28 08:18:54;;;;;;;1999.90;999.90;;;;;;;-0.73;100.00;95349.91;5068266;28;20169;-68
2023/01/28 08:21:20;;;;;;;1999.90;999.90;;;;;;;-0.59;100.00;95356.50;5068448;28;20205;-66
2023/01/28 08:23:45;;;;;;;1999.90;999.90;;;;;;;-0.55;100.00;95362.75;5068813;28;20175;-67
2023/01/28 08:26:11;;;;;;;1999.90;999.90;;;;;;;-0.69;100.00;95382.97;5068476;28;20174;-70
2023/01/28 08:28:36;;;;;;;1999.90;999.90;;;;;;;-0.77;100.00;95389.16;5068220;28;20174;-70
2023/01/28 08:31:02;;;;;;;1999.90;999.90;;;;;;;-0.77;100.00;95383.81;5068022;28;20177;-68
2023/01/28 08:33:27;;;;;;;1999.90;999.90;;;;;;;-0.73;100.00;95384.75;5068088;28;20172;-69
2023/01/28 08:35:53;;;;;;;1999.90;999.90;;;;;;;-0.71;100.00;95390.53;5067906;28;20194;-67
2023/01/28 08:38:19;;;;;;;1999.90;999.90;;;;;;;-0.64;100.00;95386.22;5067894;28;20171;-67
2023/01/28 08:40:45;;;;;;;1999.90;999.90;;;;;;;-0.73;100.00;95388.19;5067840;28;20194;-69
2023/01/28 08:43:11;;;;;;;1999.90;999.90;;;;;;;-0.70;100.00;95386.72;5067943;28;20170;-68
2023/01/28 08:45:39;;;;;;;1999.90;999.90;;;;;;;-0.59;100.00;95387.88;5067951;28;20166;-68
2023/01/28 08:48:05;;;;;;;1999.90;999.90;;;;;;;-0.62;100.00;95392.00;5067582;28;20171;-67
2023/01/28 08:50:34;;;;;;;1999.90;999.90;;;;;;;-0.61;100.00;95387.44;5067530;28;20222;-66
2023/01/28 08:53:02;;;;;;;1999.90;999.90;;;;;;;-0.57;100.00;95397.16;5066913;28;20169;-68
2023/01/28 08:55:28;;;;;;;1999.90;999.90;;;;;;;-0.55;100.00;95404.84;5068242;28;20171;-66
2023/01/28 08:57:54;;;;;;;1999.90;999.90;;;;;;;-0.56;100.00;95409.44;5068154;28;20228;-71
2023/01/28 09:00:20;;;;;;;1999.90;999.90;;;;;;;-0.53;100.00;95403.44;5067463;28;20221;-70
2023/01/28 09:02:49;;;;;;;1999.90;999.90;;;;;;;-0.53;100.00;95408.00;5067678;28;20169;-69
2023/01/28 09:05:15;;;;;;;1999.90;999.90;;;;;;;-0.34;100.00;95400.19;5067980;28;20171;-71
2023/01/28 09:07:40;;;;;;;1999.90;999.90;;;;;;;-0.36;100.00;95413.19;5068008;28;20482;-69
2023/01/28 09:10:06;;;;;;;1999.90;999.90;;;;;;;-0.53;100.00;95430.25;5068168;28;20172;-66
2023/01/28 09:12:31;;;;;;;1999.90;999.90;;;;;;;-0.25;100.00;95425.03;5068060;28;20211;-68
2023/01/28 09:14:57;;;;;;;1999.90;999.90;;;;;;;-0.19;100.00;95429.03;5067751;28;20184;-69
2023/01/28 09:17:22;;;;;;;1999.90;999.90;;;;;;;0.12;100.00;95418.56;5068081;28;20167;-67
2023/01/28 09:19:48;;;;;;;1999.90;999.90;;;;;;;0.08;100.00;95436.47;5067329;28;20186;-71
2023/01/28 09:22:13;;;;;;;1999.90;999.90;;;;;;;-0.10;100.00;95453.88;5067080;28;20199;-68
2023/01/28 09:24:39;;;;;;;1999.90;999.90;;;;;;;0.03;100.00;95468.88;5067524;28;20237;-68
2023/01/28 09:27:04;;;;;;;1999.90;999.90;;;;;;;-0.02;100.00;95499.41;5067148;28;20226;-68
2023/01/28 09:29:30;;;;;;;1999.90;999.90;;;;;;;0.16;100.00;95508.03;5067654;28;20481;-68
2023/01/28 09:31:55;;;;;;;1999.90;999.90;;;;;;;0.12;100.00;95517.06;5067309;28;20171;-70
2023/01/28 09:34:20;;;;;;;1999.90;999.90;;;;;;;0.27;100.00;95527.94;5067178;28;20242;-69
2023/01/28 09:36:46;;;;;;;1999.90;999.90;;;;;;;0.30;100.00;95538.03;5067154;28;20163;-70
2023/01/28 09:39:11;;;;;;;1999.90;999.90;;;;;;;0.24;100.00;95558.16;5066968;28;20257;-71
2023/01/28 09:42:02;;;;;;;1999.90;999.90;;;;;;;0.23;100.00;95572.69;5067392;28;20192;-73
2023/01/28 09:44:52;;;;;;;1999.90;999.90;;;;;;;0.20;100.00;95584.09;5066997;28;20174;-70
2023/01/28 09:47:40;;;;;;;1999.90;999.90;;;;;;;0.18;100.00;95591.69;5067670;28;20160;-69
2023/01/28 09:50:15;;;;;;;1999.90;999.90;;;;;;;0.29;100.00;95600.13;5066948;28;20262;-71
2023/01/28 09:52:41;;;;;;;1999.90;999.90;;;;;;;0.53;100.00;95600.94;5067306;28;20173;-70
2023/01/28 09:55:21;;;;;;;1999.90;999.90;;;;;;;0.64;100.00;95618.16;5067469;28;20191;-71
2023/01/28 09:57:54;;;;;;;1999.90;999.90;;;;;;;0.50;100.00;95633.81;5067545;28;20160;-70
2023/01/28 10:00:23;;;;;;;1999.90;999.90;;;;;;;0.53;100.00;95648.47;5067370;28;20155;-72
2023/01/28 10:02:48;;;;;;;1999.90;999.90;;;;;;;0.79;100.00;95657.03;5067093;28;20170;-70
2023/01/28 10:05:38;;;;;;;1999.90;999.90;;;;;;;0.84;100.00;95664.88;5070858;28;20187;-65
2023/01/28 10:08:16;;;;;;;1999.90;999.90;;;;;;;0.83;100.00;95690.97;5071367;28;20327;-67
2023/01/28 10:10:49;;;;;;;1999.90;999.90;;;;;;;0.92;100.00;95715.06;5070939;28;20190;-65
2023/01/28 10:13:39;;;;;;;1999.90;999.90;;;;;;;0.89;100.00;95729.94;5071089;28;20185;-68
2023/01/28 10:16:15;;;;;;;1999.90;999.90;;;;;;;1.16;100.00;95725.84;5071494;28;20168;-72
2023/01/28 10:18:43;;;;;;;1999.90;999.90;;;;;;;1.22;100.00;95738.72;5071181;28;20355;-71
2023/01/28 10:21:48;;;;;;;1999.90;999.90;;;;;;;1.33;100.00;95750.63;5070460;28;20249;-71
2023/01/28 10:24:21;;;;;;;1999.90;999.90;;;;;;;1.83;100.00;95744.88;5053519;28;20188;-70
2023/01/28 10:26:47;;;;;;;1999.90;999.90;;;;;;;1.81;100.00;95769.44;5070947;28;20169;-71
2023/01/28 10:29:18;;;;;;;1999.90;999.90;;;;;;;1.84;100.00;95776.06;5071019;28;20180;-70
2023/01/28 10:31:51;;;;;;;1999.90;999.90;;;;;;;1.86;100.00;95792.66;5070772;28;20173;-66
2023/01/28 10:34:16;;;;;;;1999.90;999.90;;;;;;;1.76;100.00;95809.25;5071156;28;20165;-66
2023/01/28 10:36:42;;;;;;;1999.90;999.90;;;;;;;1.79;100.00;95814.75;5070330;28;20169;-66
2023/01/28 10:39:13;;;;;;;1999.90;999.90;;;;;;;1.90;100.00;95815.84;5070139;28;20165;-65
2023/01/28 10:41:39;;;;;;;1999.90;999.90;;;;;;;1.95;100.00;95818.34;5070429;28;20200;-66
2023/01/28 10:44:04;;;;;;;1999.90;999.90;;;;;;;1.98;100.00;95817.66;5070567;28;20180;-67
2023/01/28 10:46:35;;;;;;;1999.90;999.90;;;;;;;2.51;100.00;95803.84;5069889;28;20174;-63
2023/01/28 10:49:14;;;;;;;1999.90;999.90;;;;;;;2.74;100.00;95807.59;5070106;28;20169;-65
2023/01/28 10:51:41;;;;;;;1999.90;999.90;;;;;;;2.88;100.00;95831.50;5069868;28;20220;-66
2023/01/28 10:54:23;;;;;;;1999.90;999.90;;;;;;;3.01;100.00;95828.41;5070291;28;20170;-67
2023/01/28 10:56:58;;;;;;;1999.90;999.90;;;;;;;3.30;100.00;95836.13;5070446;28;20177;-65
2023/01/28 10:59:33;;;;;;;1999.90;999.90;;;;;;;2.92;100.00;95843.16;5069957;28;20172;-66
2023/01/28 11:02:02;;;;;;;1999.90;999.90;;;;;;;2.76;100.00;95848.50;5070339;28;20255;-66
2023/01/28 11:04:29;;;;;;;1999.90;999.90;;;;;;;2.30;100.00;95849.03;5069810;28;20184;-66
2023/01/28 11:07:05;;;;;;;1999.90;999.90;;;;;;;2.28;100.00;95843.22;5069925;28;20180;-65
2023/01/28 11:09:32;;;;;;;1999.90;999.90;;;;;;;2.12;100.00;95845.00;5070185;28;20172;-67
2023/01/28 11:12:09;;;;;;;1999.90;999.90;;;;;;;2.07;100.00;95837.16;5069658;28;20180;-68
2023/01/28 11:14:34;;;;;;;1999.90;999.90;;;;;;;2.29;100.00;95827.81;5069396;28;20165;-66
2023/01/28 11:16:59;;;;;;;1999.90;999.90;;;;;;;1.99;100.00;95837.28;5069698;28;20175;-64
2023/01/28 11:19:32;;;;;;;1999.90;999.90;;;;;;;1.68;100.00;95840.53;5069758;28;20189;-65
2023/01/28 11:21:58;;;;;;;1999.90;999.90;;;;;;;1.83;100.00;95833.72;5069821;28;20268;-66
2023/01/28 11:24:32;;;;;;;1999.90;999.90;;;;;;;1.93;100.00;95831.34;5069384;28;20181;-64
2023/01/28 11:27:17;;;;;;;1999.90;999.90;;;;;;;2.18;100.00;95830.19;5069652;28;20247;-67
2023/01/28 11:29:43;;;;;;;1999.90;999.90;;;;;;;1.90;100.00;95837.41;5069491;28;20193;-67
2023/01/28 11:32:24;;;;;;;1999.90;999.90;;;;;;;1.76;100.00;95845.03;5069105;28;20177;-67